Time;durP1;ratioP1;P1;durP2;ratioP2;P2;SDS_P1;SDS_P2;PMS_P1;PMS_P2;Temp;Humidity;BMP_temperature;BMP_pressure;BME280_temperature;BME280_humidity;BME280_pressure;Samples;Min_cycle;Max_cycle;Signal;HPM_P1;HPM_P2
2022/04/01 00:01:55;;;;;;;1.33;1.10;;;18.40;50.60;;;;;;5107209;27;45100;-77
2022/04/01 00:04:22;;;;;;;2.42;1.02;;;18.50;50.60;;;;;;5107146;27;45341;-77
2022/04/01 00:06:49;;;;;;;1.20;1.02;;;18.50;50.50;;;;;;5107120;27;45305;-77
2022/04/01 00:09:15;;;;;;;1.20;0.98;;;18.50;50.60;;;;;;5106267;27;45225;-77
2022/04/01 00:11:42;;;;;;;1.15;1.05;;;18.40;50.50;;;;;;5106343;27;45167;-77
2022/04/01 00:14:09;;;;;;;0.65;0.65;;;18.50;50.70;;;;;;5107160;27;45205;-77
2022/04/01 00:16:38;;;;;;;1.00;0.90;;;18.50;50.60;;;;;;5106990;27;46968;-77
2022/04/01 00:19:05;;;;;;;1.20;1.10;;;18.50;50.60;;;;;;5105642;27;45372;-78
2022/04/01 00:21:32;;;;;;;1.27;1.17;;;18.50;50.40;;;;;;5110252;27;45367;-77
2022/04/01 00:23:58;;;;;;;1.08;0.82;;;18.40;50.00;;;;;;5113608;27;45475;-77
2022/04/01 00:26:25;;;;;;;1.10;1.00;;;18.50;49.90;;;;;;5120180;27;45337;-77
2022/04/01 00:28:52;;;;;;;1.23;0.90;;;18.40;49.70;;;;;;5109776;27;45509;-78
2022/04/01 00:31:20;;;;;;;1.50;1.00;;;18.40;49.90;;;;;;5110425;27;45190;-77
2022/04/01 00:34:15;;;;;;;1.05;0.80;;;18.40;49.70;;;;;;5106133;27;45242;-77
2022/04/01 00:36:34;;;;;;;1.10;1.00;;;18.40;49.70;;;;;;5100254;27;45322;-77
2022/04/01 00:39:01;;;;;;;0.85;0.80;;;18.40;49.60;;;;;;5105943;27;45278;-77
2022/04/01 00:41:28;;;;;;;0.80;0.80;;;18.40;49.70;;;;;;5109265;27;45295;-77
2022/04/01 00:44:15;;;;;;;1.25;1.15;;;18.40;49.70;;;;;;5099648;27;45262;-77
2022/04/01 00:46:43;;;;;;;1.50;1.05;;;18.40;49.50;;;;;;5108135;27;45477;-77
2022/04/01 00:49:11;;;;;;;1.35;0.95;;;18.40;49.20;;;;;;5097359;27;45131;-77
2022/04/01 00:51:39;;;;;;;1.10;1.00;;;18.40;49.20;;;;;;5108096;27;45265;-78
2022/04/01 00:54:06;;;;;;;1.08;0.90;;;18.40;49.50;;;;;;5109601;27;45342;-77
2022/04/01 00:56:34;;;;;;;1.48;0.80;;;18.40;49.80;;;;;;5109420;27;46528;-77
2022/04/01 00:59:02;;;;;;;0.90;0.90;;;18.40;49.60;;;;;;5109391;27;45335;-78
2022/04/01 01:01:31;;;;;;;1.27;1.00;;;18.40;49.80;;;;;;5102427;27;45519;-77
2022/04/01 01:03:58;;;;;;;1.27;0.98;;;18.40;49.60;;;;;;5108655;27;45161;-77
2022/04/01 01:06:27;;;;;;;1.60;1.02;;;18.40;49.60;;;;;;5108027;27;45320;-77
2022/04/01 01:08:55;;;;;;;1.27;1.05;;;18.40;49.60;;;;;;5108442;27;45248;-78
2022/04/01 01:11:22;;;;;;;0.82;0.82;;;18.40;49.40;;;;;;5107940;27;45188;-77
2022/04/01 01:13:49;;;;;;;1.15;0.90;;;18.40;49.60;;;;;;5109211;27;45254;-78
2022/04/01 01:16:16;;;;;;;3.30;0.90;;;18.40;49.40;;;;;;5107360;27;46983;-77
2022/04/01 01:18:44;;;;;;;0.90;0.90;;;18.40;49.00;;;;;;5107621;27;45919;-77
2022/04/01 01:21:11;;;;;;;1.13;1.00;;;18.40;48.70;;;;;;5109986;27;45279;-79
2022/04/01 01:23:41;;;;;;;1.13;0.93;;;18.40;48.30;;;;;;5108723;27;45202;-78
2022/04/01 01:26:09;;;;;;;1.25;1.15;;;18.40;48.20;;;;;;5110012;27;45349;-79
2022/04/01 01:28:36;;;;;;;1.23;1.10;;;18.40;48.20;;;;;;5108777;27;45339;-79
2022/04/01 01:31:05;;;;;;;1.30;1.10;;;18.40;48.10;;;;;;5107533;27;45215;-76
2022/04/01 01:33:32;;;;;;;1.08;0.90;;;18.40;48.10;;;;;;5111706;27;45395;-79
2022/04/01 01:35:59;;;;;;;1.30;1.02;;;18.40;48.20;;;;;;5108965;27;46460;-79
2022/04/01 01:38:25;;;;;;;1.30;0.95;;;18.40;48.10;;;;;;5106685;27;45818;-79
2022/04/01 01:40:53;;;;;;;2.05;1.10;;;18.40;48.30;;;;;;5108807;27;45158;-79
2022/04/01 01:43:22;;;;;;;1.48;1.20;;;18.40;48.20;;;;;;5108186;27;45164;-80
2022/04/01 01:45:48;;;;;;;1.17;1.08;;;18.40;47.70;;;;;;5107769;27;47948;-78
2022/04/01 01:48:17;;;;;;;1.33;1.02;;;18.40;47.90;;;;;;5108043;27;46409;-78
2022/04/01 01:56:12;;;;;;;0.93;0.88;;;18.40;48.70;;;;;;5105395;27;45231;-78
2022/04/01 01:58:40;;;;;;;0.90;0.80;;;18.40;48.70;;;;;;5108147;27;45210;-78
2022/04/01 02:01:07;;;;;;;1.33;1.10;;;18.40;48.60;;;;;;5108446;27;45260;-79
2022/04/01 02:03:34;;;;;;;1.33;0.98;;;18.40;48.70;;;;;;5108278;27;45307;-78
2022/04/01 02:06:02;;;;;;;1.50;1.10;;;18.40;48.50;;;;;;5106443;27;46600;-78
2022/04/01 02:08:29;;;;;;;0.82;0.82;;;18.40;48.70;;;;;;5108547;27;46222;-78
2022/04/01 02:10:56;;;;;;;1.13;1.02;;;18.40;48.30;;;;;;5107587;27;45223;-78
2022/04/01 02:13:23;;;;;;;1.80;1.25;;;18.40;48.20;;;;;;5106953;27;45519;-78
2022/04/01 02:15:51;;;;;;;1.63;1.00;;;18.40;47.80;;;;;;5107536;27;45279;-78
2022/04/01 02:18:20;;;;;;;1.30;1.20;;;18.40;47.40;;;;;;5106457;27;45494;-79
2022/04/01 02:20:47;;;;;;;1.17;1.05;;;18.40;47.10;;;;;;5106931;27;45362;-78
2022/04/01 02:23:14;;;;;;;0.93;0.93;;;18.40;47.10;;;;;;5108870;27;45249;-78
2022/04/01 02:25:42;;;;;;;1.30;1.10;;;18.40;47.20;;;;;;5106906;27;47248;-78
2022/04/01 02:28:09;;;;;;;1.20;1.00;;;18.30;47.20;;;;;;5107547;27;45226;-78
2022/04/01 02:30:36;;;;;;;1.15;1.05;;;18.30;47.10;;;;;;5107675;27;45213;-78
2022/04/01 02:33:06;;;;;;;1.20;1.10;;;18.30;47.20;;;;;;5106046;27;45391;-79
2022/04/01 02:35:32;;;;;;;1.58;1.10;;;18.30;47.00;;;;;;5104068;27;47117;-78
2022/04/01 02:38:01;;;;;;;1.10;0.85;;;18.30;47.10;;;;;;5106096;27;45398;-78
2022/04/01 02:40:28;;;;;;;1.00;0.90;;;18.30;47.10;;;;;;5107536;27;45579;-78
2022/04/01 02:42:55;;;;;;;1.13;1.02;;;18.30;47.20;;;;;;5112396;27;45392;-78
2022/04/01 02:45:24;;;;;;;0.82;0.80;;;18.30;47.60;;;;;;5118906;27;45228;-79
2022/04/01 02:47:50;;;;;;;1.60;1.10;;;18.30;47.70;;;;;;5121654;27;45312;-78
2022/04/01 02:50:20;;;;;;;1.20;0.90;;;18.40;47.80;;;;;;5106870;27;45160;-78
2022/04/01 02:52:46;;;;;;;1.02;0.93;;;18.40;47.70;;;;;;5107384;27;45375;-78
2022/04/01 02:55:13;;;;;;;0.95;0.80;;;18.40;47.70;;;;;;5106373;27;45465;-78
2022/04/01 02:57:40;;;;;;;1.70;1.00;;;18.40;47.50;;;;;;5106298;27;45226;-78
2022/04/01 03:00:09;;;;;;;1.10;0.80;;;18.40;47.70;;;;;;5106415;27;46182;-79
2022/04/01 03:02:37;;;;;;;1.10;0.90;;;18.40;47.80;;;;;;5107871;27;45405;-78
2022/04/01 03:05:05;;;;;;;1.55;1.10;;;18.40;47.70;;;;;;5108171;27;46580;-78
2022/04/01 03:07:33;;;;;;;1.00;0.90;;;18.40;47.50;;;;;;5106106;27;45207;-78
2022/04/01 03:10:00;;;;;;;1.20;0.98;;;18.40;47.30;;;;;;5106493;27;45346;-78
2022/04/01 03:12:27;;;;;;;1.02;0.85;;;18.40;46.70;;;;;;5103624;27;45307;-78
2022/04/01 03:14:54;;;;;;;1.73;1.00;;;18.40;46.60;;;;;;5105066;27;48206;-78
2022/04/01 03:17:21;;;;;;;0.90;0.77;;;18.40;46.70;;;;;;5107112;27;45340;-79
2022/04/01 03:19:47;;;;;;;1.35;1.02;;;18.30;46.00;;;;;;5106891;27;45143;-78
2022/04/01 03:22:14;;;;;;;1.10;0.90;;;18.30;46.20;;;;;;5107629;27;45468;-78
2022/04/01 03:24:42;;;;;;;1.10;1.00;;;18.30;45.80;;;;;;5107793;27;47219;-77
2022/04/01 03:27:09;;;;;;;1.35;1.00;;;18.30;45.40;;;;;;5105138;27;45194;-77
2022/04/01 03:29:36;;;;;;;1.33;0.98;;;18.30;45.20;;;;;;5107115;27;45221;-77
2022/04/01 03:32:03;;;;;;;1.98;1.10;;;18.30;45.50;;;;;;5106555;27;45471;-78
2022/04/01 03:34:30;;;;;;;1.52;1.00;;;18.30;47.20;;;;;;5108011;27;47276;-77
2022/04/01 03:36:57;;;;;;;2.35;1.17;;;18.30;46.60;;;;;;5105298;27;45234;-78
2022/04/01 03:39:25;;;;;;;1.42;1.05;;;18.30;45.20;;;;;;5105691;27;45184;-78
2022/04/01 03:41:53;;;;;;;1.02;0.93;;;18.30;45.70;;;;;;5107496;27;45340;-78
2022/04/01 03:44:21;;;;;;;0.75;0.75;;;18.30;46.50;;;;;;5105171;27;45340;-78
2022/04/01 03:46:53;;;;;;;1.83;1.00;;;18.30;46.30;;;;;;5106636;27;45272;-77
2022/04/01 03:49:23;;;;;;;1.30;0.90;;;18.30;47.00;;;;;;5106756;27;45306;-77
2022/04/01 03:51:50;;;;;;;1.30;0.90;;;18.30;46.60;;;;;;5107835;27;45271;-78
2022/04/01 03:54:18;;;;;;;1.17;0.80;;;18.40;46.70;;;;;;5109979;27;46126;-78
2022/04/01 03:56:52;;;;;;;1.38;1.08;;;18.40;46.80;;;;;;5111611;27;45590;-77
2022/04/01 03:59:21;;;;;;;1.10;0.82;;;18.40;46.80;;;;;;5109712;27;45208;-77
2022/04/01 04:01:48;;;;;;;0.80;0.80;;;18.40;46.60;;;;;;5108397;27;45694;-77
2022/04/01 04:04:17;;;;;;;2.03;1.20;;;18.40;46.70;;;;;;5108098;27;46207;-78
2022/04/01 04:06:45;;;;;;;1.33;0.90;;;18.40;46.20;;;;;;5107492;27;45418;-77
2022/04/01 04:09:13;;;;;;;1.33;1.15;;;18.40;45.50;;;;;;5102114;27;45290;-78
2022/04/01 04:11:40;;;;;;;1.42;1.10;;;18.40;45.20;;;;;;5107556;27;45112;-77
2022/04/01 04:14:08;;;;;;;1.33;1.20;;;18.30;44.80;;;;;;5108556;27;46392;-77
2022/04/01 04:16:44;;;;;;;2.78;1.20;;;18.30;44.80;;;;;;5110242;27;45609;-78
2022/04/01 04:19:25;;;;;;;1.35;1.10;;;18.30;44.50;;;;;;5109517;27;45303;-77
2022/04/01 04:22:07;;;;;;;1.45;1.00;;;18.30;44.10;;;;;;5110573;27;45232;-77
2022/04/01 04:24:43;;;;;;;1.33;1.23;;;18.30;44.80;;;;;;5110746;27;47037;-77
2022/04/01 04:27:12;;;;;;;1.85;1.30;;;18.20;44.70;;;;;;5107598;27;45675;-77
2022/04/01 04:29:47;;;;;;;1.38;1.27;;;18.20;45.10;;;;;;5109219;27;45591;-77
2022/04/01 04:32:24;;;;;;;1.10;1.00;;;18.20;44.80;;;;;;5110560;27;45218;-77
2022/04/01 04:34:52;;;;;;;1.85;1.10;;;18.20;45.10;;;;;;5106469;27;47888;-77
2022/04/01 04:37:25;;;;;;;1.63;1.10;;;18.20;45.40;;;;;;5110357;27;45376;-77
2022/04/01 04:39:54;;;;;;;1.63;1.15;;;18.20;45.60;;;;;;5103241;27;45288;-78
2022/04/01 04:42:22;;;;;;;2.13;1.30;;;18.30;45.70;;;;;;5105121;27;45484;-77
2022/04/01 04:44:50;;;;;;;1.25;1.08;;;18.30;45.10;;;;;;5106617;27;46212;-77
2022/04/01 04:47:25;;;;;;;0.93;0.82;;;18.30;45.50;;;;;;5109220;27;45499;-78
2022/04/01 04:49:53;;;;;;;1.10;0.88;;;18.30;45.40;;;;;;5106649;27;45226;-77
2022/04/01 04:52:22;;;;;;;1.10;1.00;;;18.30;45.30;;;;;;5101557;27;45532;-77
2022/04/01 04:54:50;;;;;;;1.30;1.08;;;18.30;45.20;;;;;;5109251;27;45483;-77
2022/04/01 04:57:18;;;;;;;1.13;1.00;;;18.30;45.40;;;;;;5110399;27;45217;-77
2022/04/01 04:59:48;;;;;;;0.95;0.90;;;18.30;45.20;;;;;;5107758;27;45400;-77
2022/04/01 05:02:21;;;;;;;1.30;0.95;;;18.30;45.10;;;;;;5114233;27;45348;-77
2022/04/01 05:05:00;;;;;;;2.22;1.23;;;18.30;44.10;;;;;;5107184;27;47945;-77
2022/04/01 05:07:49;;;;;;;1.17;0.90;;;18.30;43.80;;;;;;5105865;27;45320;-77
2022/04/01 05:10:18;;;;;;;1.60;1.35;;;18.20;43.90;;;;;;5104505;27;45531;-77
2022/04/01 05:12:54;;;;;;;1.15;0.90;;;18.20;44.70;;;;;;5106508;27;45362;-77
2022/04/01 05:15:26;;;;;;;2.17;1.10;;;18.20;44.60;;;;;;5099882;27;46172;-77
2022/04/01 05:18:09;;;;;;;0.80;0.80;;;18.20;44.30;;;;;;5102986;27;45280;-76
2022/04/01 05:20:38;;;;;;;1.42;0.90;;;18.20;43.90;;;;;;5107261;27;45220;-77
2022/04/01 05:23:12;;;;;;;1.10;1.00;;;18.20;44.00;;;;;;5109423;27;46288;-77
2022/04/01 05:25:44;;;;;;;1.23;1.13;;;18.20;45.30;;;;;;5108238;27;45370;-77
2022/04/01 05:28:21;;;;;;;1.10;1.00;;;18.20;44.40;;;;;;5101167;27;45229;-79
2022/04/01 05:30:57;;;;;;;1.63;1.25;;;18.20;44.00;;;;;;5101627;27;45361;-79
2022/04/01 05:33:28;;;;;;;1.60;0.98;;;18.20;44.20;;;;;;5105645;27;45449;-79
2022/04/01 05:35:54;;;;;;;1.25;1.08;;;18.20;44.60;;;;;;5108425;27;45279;-77
2022/04/01 05:38:23;;;;;;;1.30;0.90;;;18.20;45.00;;;;;;5106135;27;45408;-78
2022/04/01 05:40:51;;;;;;;1.00;0.80;;;18.20;45.20;;;;;;5106023;27;45754;-78
2022/04/01 05:43:18;;;;;;;1.33;0.85;;;18.30;45.20;;;;;;5104575;27;45531;-78
2022/04/01 05:45:45;;;;;;;0.90;0.90;;;18.30;45.20;;;;;;5101925;27;46024;-78
2022/04/01 05:48:13;;;;;;;0.80;0.80;;;18.30;46.20;;;;;;5104355;27;46280;-78
2022/04/01 05:50:41;;;;;;;1.08;0.90;;;18.30;44.90;;;;;;5107131;27;45296;-77
2022/04/01 05:53:08;;;;;;;0.98;0.80;;;18.30;44.80;;;;;;5097369;27;45375;-77
2022/04/01 05:55:38;;;;;;;0.80;0.80;;;18.20;44.40;;;;;;5102264;27;46490;-78
2022/04/01 05:58:06;;;;;;;0.77;0.77;;;18.10;44.50;;;;;;5105783;27;45267;-77
2022/04/01 06:00:40;;;;;;;1.17;0.90;;;18.10;44.20;;;;;;5105785;27;45379;-77
2022/04/01 06:03:24;;;;;;;0.80;0.80;;;18.10;43.70;;;;;;5106194;27;45395;-77
2022/04/01 06:05:57;;;;;;;1.70;0.90;;;18.10;44.10;;;;;;5104564;27;47050;-78
2022/04/01 06:08:38;;;;;;;1.08;0.98;;;18.10;43.10;;;;;;5094165;27;45246;-77
2022/04/01 06:11:14;;;;;;;1.00;0.80;;;18.10;42.90;;;;;;5105311;27;45562;-77
2022/04/01 06:13:51;;;;;;;1.05;0.80;;;18.10;42.40;;;;;;5108134;27;45363;-76
2022/04/01 06:16:32;;;;;;;0.70;0.70;;;18.10;42.00;;;;;;5106202;27;47948;-77
2022/04/01 06:19:11;;;;;;;1.60;0.70;;;18.10;41.90;;;;;;5106700;27;45546;-77
2022/04/01 06:21:44;;;;;;;1.48;0.80;;;18.00;41.70;;;;;;5105919;27;45317;-77
2022/04/01 06:24:12;;;;;;;1.10;0.98;;;18.00;41.30;;;;;;5108562;27;45218;-76
2022/04/01 06:26:41;;;;;;;1.55;1.00;;;18.00;41.40;;;;;;5108195;27;45461;-77
2022/04/01 06:29:25;;;;;;;1.10;0.80;;;18.00;41.40;;;;;;5105422;27;45250;-77
2022/04/01 06:31:58;;;;;;;0.85;0.60;;;18.00;41.10;;;;;;5091794;27;45274;-77
2022/04/01 06:34:35;;;;;;;0.77;0.70;;;18.10;41.30;;;;;;5096569;27;45307;-77
2022/04/01 06:37:05;;;;;;;1.75;0.80;;;18.10;42.40;;;;;;5100855;27;46200;-77
2022/04/01 06:39:42;;;;;;;1.35;0.80;;;18.10;43.20;;;;;;5105784;27;45325;-76
2022/04/01 06:42:15;;;;;;;0.88;0.80;;;18.10;43.20;;;;;;5107445;27;45289;-77
2022/04/01 06:44:42;;;;;;;0.50;0.50;;;18.10;43.50;;;;;;5105280;27;45305;-76
2022/04/01 06:47:08;;;;;;;0.73;0.73;;;18.10;42.40;;;;;;5090589;27;46522;-77
2022/04/01 06:49:35;;;;;;;1.20;0.80;;;18.10;42.50;;;;;;5102021;27;45600;-77
2022/04/01 06:52:04;;;;;;;1.92;0.75;;;18.10;42.70;;;;;;5101888;27;45329;-77
2022/04/01 06:54:31;;;;;;;1.00;0.80;;;18.10;42.40;;;;;;5099935;27;45357;-76
2022/04/01 06:56:58;;;;;;;0.93;0.80;;;18.20;42.90;;;;;;5103147;27;45449;-77
2022/04/01 06:59:25;;;;;;;1.52;0.75;;;18.20;42.70;;;;;;5098576;27;45714;-76
2022/04/01 07:01:52;;;;;;;0.82;0.82;;;18.20;42.90;;;;;;5102759;27;45397;-77
2022/04/01 07:04:19;;;;;;;0.80;0.60;;;18.10;43.20;;;;;;5102235;27;45416;-77
2022/04/01 07:06:47;;;;;;;1.50;0.73;;;18.20;43.20;;;;;;5102052;27;48207;-77
2022/04/01 07:09:15;;;;;;;1.30;0.90;;;18.20;43.00;;;;;;5102085;27;45246;-77
2022/04/01 07:11:42;;;;;;;1.25;1.00;;;18.10;43.30;;;;;;5101609;27;46664;-77
2022/04/01 07:14:08;;;;;;;0.80;0.80;;;18.10;43.40;;;;;;5101242;27;45192;-77
2022/04/01 07:16:35;;;;;;;1.48;0.98;;;18.10;43.80;;;;;;5105025;27;46602;-77
2022/04/01 07:19:03;;;;;;;1.17;0.90;;;18.10;43.60;;;;;;5104432;27;46114;-78
2022/04/01 07:21:30;;;;;;;1.02;0.90;;;18.10;44.00;;;;;;5105302;27;45128;-77
2022/04/01 07:23:59;;;;;;;1.02;0.93;;;18.10;43.90;;;;;;5104110;27;45338;-77
2022/04/01 07:26:27;;;;;;;1.20;1.00;;;18.10;43.80;;;;;;5101628;27;47995;-77
2022/04/01 07:28:55;;;;;;;1.50;1.10;;;18.20;43.70;;;;;;5103525;27;45150;-77
2022/04/01 07:34:08;;;;;;;1.90;0.70;;;18.20;43.30;;;;;;5108008;27;45157;-77
2022/04/01 07:36:36;;;;;;;1.27;1.10;;;18.20;43.50;;;;;;5106063;27;47405;-79
2022/04/01 07:39:03;;;;;;;1.10;0.90;;;18.30;43.50;;;;;;5107978;27;45337;-77
2022/04/01 07:41:35;;;;;;;3.13;1.10;;;18.30;43.60;;;;;;5106161;27;45373;-78
2022/04/01 07:44:02;;;;;;;1.42;0.93;;;18.30;44.40;;;;;;5099282;27;45387;-78
2022/04/01 07:46:29;;;;;;;1.23;0.90;;;18.30;44.30;;;;;;5107729;27;45480;-79
2022/04/01 07:48:56;;;;;;;1.35;0.85;;;18.30;45.00;;;;;;5104900;27;45582;-78
2022/04/01 07:51:23;;;;;;;5.35;1.00;;;18.30;44.40;;;;;;5106074;27;45529;-78
2022/04/01 07:53:50;;;;;;;3.63;0.77;;;18.30;44.60;;;;;;5106459;27;45171;-79
2022/04/01 07:56:17;;;;;;;0.90;0.70;;;18.30;44.70;;;;;;5102673;27;45272;-78
2022/04/01 07:58:45;;;;;;;3.00;0.80;;;18.30;44.70;;;;;;5106783;27;45253;-78
2022/04/01 08:01:12;;;;;;;2.08;0.80;;;18.30;44.60;;;;;;5102705;27;45264;-77
2022/04/01 08:03:41;;;;;;;1.00;0.88;;;18.30;44.50;;;;;;5101970;27;45278;-77
2022/04/01 08:06:08;;;;;;;2.03;0.98;;;18.30;44.30;;;;;;5106355;27;46577;-79
2022/04/01 08:08:35;;;;;;;1.93;0.97;;;18.30;44.10;;;;;;5102751;27;45275;-78
2022/04/01 08:11:03;;;;;;;8.43;1.30;;;18.40;46.10;;;;;;5108894;27;45649;-77
2022/04/01 08:13:30;;;;;;;45.45;3.80;;;18.40;46.60;;;;;;5109456;27;45389;-75
2022/04/01 08:15:58;;;;;;;17.25;1.48;;;18.50;47.70;;;;;;5107712;27;46415;-82
2022/04/01 08:18:25;;;;;;;15.77;1.60;;;18.50;48.60;;;;;;5103917;27;45643;-82
2022/04/01 08:20:52;;;;;;;9.23;1.23;;;18.50;48.90;;;;;;5104734;27;45412;-76
2022/04/01 08:23:19;;;;;;;4.90;1.33;;;18.40;51.70;;;;;;5101803;27;45698;-76
2022/04/01 08:25:46;;;;;;;1.92;1.02;;;18.40;48.50;;;;;;5102985;27;46339;-76
2022/04/01 08:28:14;;;;;;;4.60;1.08;;;18.30;48.20;;;;;;5105012;27;45587;-77
2022/04/01 08:30:41;;;;;;;4.55;1.20;;;18.30;48.80;;;;;;5105178;27;45296;-76
2022/04/01 08:33:09;;;;;;;2.13;1.10;;;18.20;49.10;;;;;;5102904;27;45467;-76
2022/04/01 08:35:36;;;;;;;3.55;0.93;;;18.20;49.80;;;;;;5098640;27;46239;-76
2022/04/01 08:38:03;;;;;;;1.17;1.00;;;18.20;49.90;;;;;;5103911;27;45634;-76
2022/04/01 08:40:32;;;;;;;2.00;1.10;;;18.10;50.00;;;;;;5103065;27;46519;-76
2022/04/01 08:42:59;;;;;;;1.45;1.10;;;18.10;50.20;;;;;;5101459;27;47281;-76
2022/04/01 08:45:26;;;;;;;2.17;1.02;;;18.20;50.10;;;;;;5103853;27;46570;-76
2022/04/01 08:47:53;;;;;;;1.77;1.10;;;18.20;50.00;;;;;;5106890;27;45224;-77
2022/04/01 08:50:21;;;;;;;3.08;1.00;;;18.10;49.20;;;;;;5104339;27;45263;-77
2022/04/01 08:52:48;;;;;;;1.80;1.08;;;18.10;49.30;;;;;;5107911;27;45321;-76
2022/04/01 08:55:15;;;;;;;3.13;0.90;;;18.10;48.70;;;;;;5104684;27;46612;-76
2022/04/01 08:57:43;;;;;;;1.38;1.00;;;18.10;49.40;;;;;;5107787;27;45360;-76
2022/04/01 09:00:40;;;;;;;1.85;1.10;;;18.10;49.80;;;;;;5108748;27;45228;-76
2022/04/01 09:03:09;;;;;;;1.48;1.10;;;18.10;49.20;;;;;;5021826;28;45383;-76
2022/04/01 09:05:38;;;;;;;1.42;1.05;;;18.00;49.20;;;;;;5090215;27;47411;-76
2022/04/01 09:08:07;;;;;;;7.47;1.23;;;18.00;49.60;;;;;;5105981;27;45224;-76
2022/04/01 09:10:55;;;;;;;1.85;1.10;;;18.00;49.80;;;;;;5103711;27;45363;-76
2022/04/01 09:13:24;;;;;;;3.47;1.10;;;18.00;49.30;;;;;;5106382;27;45287;-77
2022/04/01 09:15:51;;;;;;;4.22;1.30;;;18.00;49.30;;;;;;5103458;27;47888;-77
2022/04/01 09:18:38;;;;;;;1.85;1.10;;;18.00;49.70;;;;;;5100120;27;45204;-76
2022/04/01 09:21:06;;;;;;;1.00;0.88;;;18.00;48.90;;;;;;5105124;27;45156;-77
2022/04/01 09:23:35;;;;;;;1.42;1.00;;;18.10;48.20;;;;;;5104301;27;45555;-77
2022/04/01 09:26:03;;;;;;;1.83;0.95;;;18.10;50.00;;;;;;5099696;27;48065;-76
2022/04/01 09:28:32;;;;;;;1.05;0.95;;;18.10;47.80;;;;;;5108402;27;45209;-76
2022/04/01 09:31:02;;;;;;;2.10;1.27;;;18.10;48.40;;;;;;5109597;27;45205;-76
2022/04/01 09:33:46;;;;;;;1.05;0.90;;;18.10;51.10;;;;;;5106514;27;45276;-76
2022/04/01 09:36:17;;;;;;;1.52;1.20;;;18.10;48.70;;;;;;5095673;27;45233;-76
2022/04/01 09:38:59;;;;;;;2.00;0.98;;;18.20;48.20;;;;;;5102929;27;45256;-77
2022/04/01 09:41:39;;;;;;;2.05;1.25;;;18.10;47.80;;;;;;5099487;27;45298;-78
2022/04/01 09:44:09;;;;;;;1.48;1.10;;;18.10;48.70;;;;;;5104727;27;45549;-78
2022/04/01 09:46:42;;;;;;;1.33;0.70;;;18.10;48.60;;;;;;5103972;27;46481;-78
2022/04/01 09:49:09;;;;;;;1.63;1.02;;;18.10;49.70;;;;;;5103194;27;45216;-79
2022/04/01 09:51:42;;;;;;;1.42;1.17;;;18.40;50.00;;;;;;5104214;27;45222;-76
2022/04/01 09:54:10;;;;;;;1.48;1.00;;;18.20;50.70;;;;;;5098334;27;45310;-77
2022/04/01 09:56:38;;;;;;;1.08;0.98;;;18.10;49.70;;;;;;5102330;27;46166;-77
2022/04/01 09:59:06;;;;;;;1.50;0.95;;;18.10;49.20;;;;;;5098394;27;45316;-77
2022/04/01 10:01:34;;;;;;;1.48;0.80;;;18.10;48.80;;;;;;5106994;27;45249;-77
2022/04/01 10:04:01;;;;;;;1.48;1.05;;;18.00;49.20;;;;;;5106341;27;45749;-77
2022/04/01 10:06:31;;;;;;;2.20;1.00;;;18.00;54.40;;;;;;5108735;27;46193;-77
2022/04/01 10:09:03;;;;;;;2.33;1.05;;;18.00;52.20;;;;;;5108205;27;45266;-77
2022/04/01 10:11:31;;;;;;;1.70;1.00;;;17.90;54.00;;;;;;5109163;27;45146;-77
2022/04/01 10:14:03;;;;;;;1.10;1.00;;;17.90;54.90;;;;;;5107499;27;45257;-78
2022/04/01 10:16:34;;;;;;;1.55;1.10;;;17.90;54.90;;;;;;5108958;27;47928;-78
2022/04/01 10:19:08;;;;;;;1.52;1.02;;;17.90;53.20;;;;;;5103595;27;45552;-77
2022/04/01 10:21:36;;;;;;;1.38;0.70;;;18.00;53.70;;;;;;5094985;27;45586;-77
2022/04/01 10:24:11;;;;;;;1.38;1.00;;;18.00;54.10;;;;;;5106630;27;45301;-77
2022/04/01 10:26:45;;;;;;;1.70;0.98;;;18.00;54.40;;;;;;5102809;27;48271;-77
2022/04/01 10:29:13;;;;;;;1.27;0.85;;;18.00;54.30;;;;;;5100989;27;45334;-77
2022/04/01 10:31:41;;;;;;;1.10;0.80;;;18.00;53.70;;;;;;5106744;27;45279;-77
2022/04/01 10:34:24;;;;;;;0.82;0.70;;;18.00;54.30;;;;;;5103262;27;45222;-77
2022/04/01 10:36:55;;;;;;;14.27;2.30;;;18.00;53.60;;;;;;5093798;27;46460;-79
2022/04/01 10:39:25;;;;;;;4.10;1.60;;;18.10;54.00;;;;;;5104088;27;45251;-79
2022/04/01 10:42:11;;;;;;;2.17;0.95;;;18.10;58.30;;;;;;5102841;27;45251;-81
2022/04/01 10:44:49;;;;;;;2.38;1.30;;;18.10;59.20;;;;;;5101139;27;45534;-78
2022/04/01 10:47:17;;;;;;;5.93;1.20;;;18.10;63.70;;;;;;5101109;27;45218;-78
2022/04/01 10:52:30;;;;;;;2.42;1.35;;;18.00;59.70;;;;;;5094840;27;45266;-79
2022/04/01 10:55:16;;;;;;;1.45;1.02;;;18.00;62.00;;;;;;5098815;27;45299;-78
2022/04/01 10:57:45;;;;;;;1.58;1.10;;;18.00;58.80;;;;;;5103090;27;45504;-78
2022/04/01 11:00:16;;;;;;;2.42;1.10;;;17.90;58.60;;;;;;5097897;27;45288;-78
2022/04/01 11:02:46;;;;;;;3.42;1.20;;;17.90;59.40;;;;;;5100693;27;45276;-78
2022/04/01 11:05:29;;;;;;;2.58;1.00;;;17.80;59.60;;;;;;5102601;27;45205;-78
2022/04/01 11:08:16;;;;;;;1.15;0.98;;;17.80;60.30;;;;;;5107243;27;46294;-78
2022/04/01 11:11:06;;;;;;;2.20;1.10;;;17.70;61.20;;;;;;5096720;27;45277;-78
2022/04/01 11:13:33;;;;;;;1.55;1.08;;;17.80;62.10;;;;;;5101252;27;45387;-78
2022/04/01 11:16:19;;;;;;;3.03;1.15;;;17.80;61.70;;;;;;5102392;27;45251;-79
2022/04/01 11:19:26;;;;;;;1.88;1.13;;;17.80;61.90;;;;;;5103266;27;46398;-78
2022/04/01 11:21:53;;;;;;;2.45;0.93;;;17.80;61.90;;;;;;5093597;27;45821;-78
2022/04/01 11:24:38;;;;;;;2.47;1.00;;;17.80;62.10;;;;;;5101559;27;45835;-78
2022/04/01 11:27:08;;;;;;;3.72;1.00;;;17.80;63.50;;;;;;5101601;27;45303;-78
2022/04/01 11:29:35;;;;;;;1.17;1.00;;;17.80;62.30;;;;;;5098460;27;47179;-78
2022/04/01 11:32:05;;;;;;;1.10;0.82;;;17.80;62.50;;;;;;5102114;27;45318;-78
2022/04/01 11:34:32;;;;;;;0.80;0.77;;;17.80;61.00;;;;;;5103435;27;45188;-78
2022/04/01 11:37:01;;;;;;;1.77;1.40;;;17.80;58.60;;;;;;5103246;27;45375;-78
2022/04/01 11:39:28;;;;;;;1.60;1.05;;;17.80;60.40;;;;;;5103866;27;47442;-78
2022/04/01 11:41:56;;;;;;;1.85;1.10;;;17.80;58.30;;;;;;5100228;27;45167;-78
2022/04/01 11:44:25;;;;;;;1.70;1.20;;;17.80;58.50;;;;;;5097878;27;45436;-78
2022/04/01 11:46:55;;;;;;;1.00;0.90;;;17.80;58.80;;;;;;5103193;27;45209;-78
2022/04/01 11:49:27;;;;;;;3.00;1.10;;;17.80;58.90;;;;;;5103398;27;47791;-78
2022/04/01 11:51:54;;;;;;;1.10;1.00;;;17.80;58.80;;;;;;5107285;27;45170;-78
2022/04/01 11:54:22;;;;;;;3.45;1.30;;;17.80;59.00;;;;;;5105121;27;45171;-78
2022/04/01 11:56:52;;;;;;;3.10;1.10;;;17.80;58.80;;;;;;5107824;27;45131;-78
2022/04/01 11:59:19;;;;;;;1.83;0.90;;;17.80;58.90;;;;;;5104945;27;46132;-78
2022/04/01 12:01:57;;;;;;;1.73;0.80;;;17.80;58.80;;;;;;5105144;27;45258;-77
2022/04/01 12:04:29;;;;;;;1.80;1.10;;;17.80;59.00;;;;;;5123449;27;45299;-78
2022/04/01 12:09:45;;;;;;;1.90;1.10;;;17.80;59.40;;;;;;5097132;27;46619;-78
2022/04/01 12:12:12;;;;;;;1.48;1.10;;;17.80;59.70;;;;;;5092962;27;45451;-79
2022/04/01 12:14:40;;;;;;;1.50;1.20;;;17.90;59.80;;;;;;5089588;27;45472;-78
2022/04/01 12:17:10;;;;;;;2.50;1.15;;;17.90;59.20;;;;;;5092606;27;46454;-78
2022/04/01 12:19:37;;;;;;;1.02;0.93;;;17.90;58.70;;;;;;5098110;27;45301;-79
2022/04/01 12:22:06;;;;;;;1.67;1.00;;;17.90;58.70;;;;;;5104682;27;45148;-79
2022/04/01 12:24:35;;;;;;;1.20;1.10;;;17.90;62.40;;;;;;5103147;27;45361;-78
2022/04/01 12:27:05;;;;;;;1.83;1.30;;;17.80;62.90;;;;;;5106143;27;45658;-78
2022/04/01 12:29:32;;;;;;;3.10;0.90;;;17.80;63.10;;;;;;5109575;27;45452;-78
2022/04/01 12:32:02;;;;;;;2.70;1.00;;;17.80;63.20;;;;;;5109959;27;45320;-78
2022/04/01 12:34:31;;;;;;;2.22;1.42;;;17.70;63.60;;;;;;5102680;27;45252;-78
2022/04/01 12:37:00;;;;;;;1.60;1.00;;;17.70;63.60;;;;;;5106460;27;45270;-78
2022/04/01 12:39:28;;;;;;;2.72;1.23;;;17.70;63.50;;;;;;5107545;27;45223;-78
2022/04/01 12:41:58;;;;;;;1.23;0.90;;;17.70;64.20;;;;;;5106555;27;45292;-78
2022/04/01 12:44:28;;;;;;;1.42;1.05;;;17.70;63.80;;;;;;5106887;27;45232;-78
2022/04/01 12:46:58;;;;;;;1.92;0.95;;;17.70;63.30;;;;;;5109113;27;45185;-77
2022/04/01 12:49:26;;;;;;;1.10;1.00;;;17.70;63.40;;;;;;5089127;27;47243;-77
2022/04/01 12:51:58;;;;;;;1.50;1.15;;;17.70;64.50;;;;;;5107007;27;45189;-77
2022/04/01 12:54:31;;;;;;;2.08;0.90;;;17.70;63.60;;;;;;5110977;27;45348;-78
2022/04/01 12:57:00;;;;;;;1.25;0.98;;;17.70;64.50;;;;;;5108676;27;45203;-78
2022/04/01 12:59:27;;;;;;;1.17;0.80;;;17.70;63.70;;;;;;5109580;27;45518;-78
2022/04/01 13:02:00;;;;;;;0.80;0.80;;;17.70;65.40;;;;;;5107912;27;45205;-78
2022/04/01 13:04:28;;;;;;;1.13;0.98;;;17.70;64.70;;;;;;5096556;27;45307;-78
2022/04/01 13:07:13;;;;;;;1.92;1.10;;;17.70;65.00;;;;;;5102711;27;45397;-78
2022/04/01 13:10:01;;;;;;;1.15;0.90;;;17.80;64.80;;;;;;5103338;27;46221;-78
2022/04/01 13:12:38;;;;;;;1.20;0.80;;;17.80;65.80;;;;;;5095422;27;45413;-78
2022/04/01 13:15:06;;;;;;;1.45;0.98;;;17.80;64.40;;;;;;5104514;27;45219;-78